sensor_id;sensor_type;location;lat;lon;timestamp;P1;durP1;ratioP1;P2;durP2;ratioP2
48853;SDS011;34673;52.808;17.856;2023-04-15T00:01:06;12.57;;;8.07;;
48853;SDS011;34673;52.808;17.856;2023-04-15T00:03:33;10.68;;;7.80;;
48853;SDS011;34673;52.808;17.856;2023-04-15T00:06:01;11.65;;;7.50;;
48853;SDS011;34673;52.808;17.856;2023-04-15T00:08:29;12.00;;;7.95;;
48853;SDS011;34673;52.808;17.856;2023-04-15T00:10:56;11.93;;;7.65;;
48853;SDS011;34673;52.808;17.856;2023-04-15T00:13:28;11.93;;;8.20;;
48853;SDS011;34673;52.808;17.856;2023-04-15T00:15:55;15.68;;;8.45;;
48853;SDS011;34673;52.808;17.856;2023-04-15T00:18:23;15.85;;;8.05;;
48853;SDS011;34673;52.808;17.856;2023-04-15T00:20:50;12.60;;;8.35;;
48853;SDS011;34673;52.808;17.856;2023-04-15T00:23:18;13.43;;;7.80;;
48853;SDS011;34673;52.808;17.856;2023-04-15T00:25:45;11.32;;;7.65;;
48853;SDS011;34673;52.808;17.856;2023-04-15T00:28:12;11.10;;;7.88;;
48853;SDS011;34673;52.808;17.856;2023-04-15T00:30:41;11.95;;;8.55;;
48853;SDS011;34673;52.808;17.856;2023-04-15T00:33:08;13.02;;;8.70;;
48853;SDS011;34673;52.808;17.856;2023-04-15T00:35:36;12.55;;;8.55;;
48853;SDS011;34673;52.808;17.856;2023-04-15T00:38:04;17.65;;;9.85;;
48853;SDS011;34673;52.808;17.856;2023-04-15T00:40:33;15.23;;;9.53;;
48853;SDS011;34673;52.808;17.856;2023-04-15T00:43:01;15.48;;;9.50;;
48853;SDS011;34673;52.808;17.856;2023-04-15T00:45:28;15.52;;;9.50;;
48853;SDS011;34673;52.808;17.856;2023-04-15T00:47:56;16.42;;;9.20;;
48853;SDS011;34673;52.808;17.856;2023-04-15T00:50:24;18.55;;;9.55;;
48853;SDS011;34673;52.808;17.856;2023-04-15T00:52:51;17.15;;;9.13;;
48853;SDS011;34673;52.808;17.856;2023-04-15T00:55:18;17.77;;;9.52;;
48853;SDS011;34673;52.808;17.856;2023-04-15T00:57:45;18.25;;;9.43;;
48853;SDS011;34673;52.808;17.856;2023-04-15T01:00:13;16.80;;;9.32;;
48853;SDS011;34673;52.808;17.856;2023-04-15T01:02:40;16.88;;;9.52;;
48853;SDS011;34673;52.808;17.856;2023-04-15T01:05:07;16.90;;;9.25;;
48853;SDS011;34673;52.808;17.856;2023-04-15T01:07:35;14.50;;;8.60;;
48853;SDS011;34673;52.808;17.856;2023-04-15T01:10:02;15.30;;;9.30;;
48853;SDS011;34673;52.808;17.856;2023-04-15T01:12:31;21.90;;;9.90;;
48853;SDS011;34673;52.808;17.856;2023-04-15T01:14:58;17.45;;;11.20;;
48853;SDS011;34673;52.808;17.856;2023-04-15T01:17:26;16.25;;;9.70;;
48853;SDS011;34673;52.808;17.856;2023-04-15T01:19:54;18.17;;;10.15;;
48853;SDS011;34673;52.808;17.856;2023-04-15T01:22:23;21.13;;;9.40;;
48853;SDS011;34673;52.808;17.856;2023-04-15T01:25:11;19.13;;;9.63;;
48853;SDS011;34673;52.808;17.856;2023-04-15T01:27:44;17.00;;;9.55;;
48853;SDS011;34673;52.808;17.856;2023-04-15T01:30:11;16.83;;;9.40;;
48853;SDS011;34673;52.808;17.856;2023-04-15T01:32:38;16.45;;;9.60;;
48853;SDS011;34673;52.808;17.856;2023-04-15T01:35:05;16.58;;;10.45;;
48853;SDS011;34673;52.808;17.856;2023-04-15T01:37:33;16.85;;;10.05;;
48853;SDS011;34673;52.808;17.856;2023-04-15T01:40:00;15.02;;;8.98;;
48853;SDS011;34673;52.808;17.856;2023-04-15T01:42:27;14.57;;;8.98;;
48853;SDS011;34673;52.808;17.856;2023-04-15T01:44:54;14.70;;;8.70;;
48853;SDS011;34673;52.808;17.856;2023-04-15T01:47:22;16.48;;;9.50;;
48853;SDS011;34673;52.808;17.856;2023-04-15T01:49:49;15.98;;;9.05;;
48853;SDS011;34673;52.808;17.856;2023-04-15T01:52:16;17.23;;;8.77;;
48853;SDS011;34673;52.808;17.856;2023-04-15T01:54:44;14.48;;;9.05;;
48853;SDS011;34673;52.808;17.856;2023-04-15T01:57:11;15.70;;;9.57;;
48853;SDS011;34673;52.808;17.856;2023-04-15T01:59:38;15.15;;;9.05;;
48853;SDS011;34673;52.808;17.856;2023-04-15T02:02:05;15.70;;;9.23;;
48853;SDS011;34673;52.808;17.856;2023-04-15T02:04:32;13.85;;;9.15;;
48853;SDS011;34673;52.808;17.856;2023-04-15T02:06:59;16.13;;;9.20;;
48853;SDS011;34673;52.808;17.856;2023-04-15T02:09:27;18.73;;;8.70;;
48853;SDS011;34673;52.808;17.856;2023-04-15T02:11:54;15.93;;;9.15;;
48853;SDS011;34673;52.808;17.856;2023-04-15T02:14:22;14.07;;;9.13;;
48853;SDS011;34673;52.808;17.856;2023-04-15T02:16:49;18.15;;;9.30;;
48853;SDS011;34673;52.808;17.856;2023-04-15T02:19:17;13.52;;;8.60;;
48853;SDS011;34673;52.808;17.856;2023-04-15T02:21:44;15.32;;;9.05;;
48853;SDS011;34673;52.808;17.856;2023-04-15T02:24:11;13.82;;;9.13;;
48853;SDS011;34673;52.808;17.856;2023-04-15T02:26:39;15.35;;;9.68;;
48853;SDS011;34673;52.808;17.856;2023-04-15T02:29:07;14.20;;;9.05;;
48853;SDS011;34673;52.808;17.856;2023-04-15T02:31:34;14.93;;;9.35;;
48853;SDS011;34673;52.808;17.856;2023-04-15T02:34:06;11.88;;;7.82;;
48853;SDS011;34673;52.808;17.856;2023-04-15T02:36:33;14.48;;;8.30;;
48853;SDS011;34673;52.808;17.856;2023-04-15T02:39:00;14.90;;;9.05;;
48853;SDS011;34673;52.808;17.856;2023-04-15T02:41:29;14.05;;;9.15;;
48853;SDS011;34673;52.808;17.856;2023-04-15T02:43:56;13.07;;;8.90;;
48853;SDS011;34673;52.808;17.856;2023-04-15T02:46:24;13.45;;;9.45;;
48853;SDS011;34673;52.808;17.856;2023-04-15T02:48:53;13.15;;;8.85;;
48853;SDS011;34673;52.808;17.856;2023-04-15T02:51:21;13.50;;;9.00;;
48853;SDS011;34673;52.808;17.856;2023-04-15T02:53:48;12.32;;;8.18;;
48853;SDS011;34673;52.808;17.856;2023-04-15T02:56:16;15.77;;;9.52;;
48853;SDS011;34673;52.808;17.856;2023-04-15T02:58:45;13.43;;;9.00;;
48853;SDS011;34673;52.808;17.856;2023-04-15T03:01:12;14.10;;;9.18;;
48853;SDS011;34673;52.808;17.856;2023-04-15T03:03:40;13.10;;;9.02;;
48853;SDS011;34673;52.808;17.856;2023-04-15T03:06:07;14.32;;;8.77;;
48853;SDS011;34673;52.808;17.856;2023-04-15T03:08:35;13.50;;;8.48;;
48853;SDS011;34673;52.808;17.856;2023-04-15T03:11:03;13.23;;;8.43;;
48853;SDS011;34673;52.808;17.856;2023-04-15T03:13:32;13.27;;;8.60;;
48853;SDS011;34673;52.808;17.856;2023-04-15T03:16:06;13.35;;;8.77;;
48853;SDS011;34673;52.808;17.856;2023-04-15T03:18:34;13.13;;;8.43;;
48853;SDS011;34673;52.808;17.856;2023-04-15T03:21:02;12.90;;;8.68;;
48853;SDS011;34673;52.808;17.856;2023-04-15T03:23:33;13.02;;;8.77;;
48853;SDS011;34673;52.808;17.856;2023-04-15T03:26:01;13.75;;;7.95;;
48853;SDS011;34673;52.808;17.856;2023-04-15T03:28:30;12.70;;;8.45;;
48853;SDS011;34673;52.808;17.856;2023-04-15T03:30:59;13.35;;;8.90;;
48853;SDS011;34673;52.808;17.856;2023-04-15T03:33:26;13.57;;;8.55;;
48853;SDS011;34673;52.808;17.856;2023-04-15T03:35:53;14.23;;;8.15;;
48853;SDS011;34673;52.808;17.856;2023-04-15T03:38:21;14.90;;;8.40;;
48853;SDS011;34673;52.808;17.856;2023-04-15T03:40:48;11.65;;;7.95;;
48853;SDS011;34673;52.808;17.856;2023-04-15T03:43:15;12.52;;;8.52;;
48853;SDS011;34673;52.808;17.856;2023-04-15T03:45:42;13.63;;;8.45;;
48853;SDS011;34673;52.808;17.856;2023-04-15T03:48:09;11.70;;;8.00;;
48853;SDS011;34673;52.808;17.856;2023-04-15T03:50:43;13.32;;;8.27;;
48853;SDS011;34673;52.808;17.856;2023-04-15T03:53:11;15.25;;;8.60;;
48853;SDS011;34673;52.808;17.856;2023-04-15T03:55:38;12.45;;;8.38;;
48853;SDS011;34673;52.808;17.856;2023-04-15T03:58:06;14.52;;;9.68;;
48853;SDS011;34673;52.808;17.856;2023-04-15T04:00:33;13.38;;;9.13;;
48853;SDS011;34673;52.808;17.856;2023-04-15T04:03:00;14.30;;;9.60;;
48853;SDS011;34673;52.808;17.856;2023-04-15T04:05:27;12.68;;;9.00;;
48853;SDS011;34673;52.808;17.856;2023-04-15T04:07:54;13.75;;;9.70;;
48853;SDS011;34673;52.808;17.856;2023-04-15T04:10:22;13.85;;;9.25;;
48853;SDS011;34673;52.808;17.856;2023-04-15T04:12:49;14.05;;;9.50;;
48853;SDS011;34673;52.808;17.856;2023-04-15T04:15:16;13.32;;;9.60;;
48853;SDS011;34673;52.808;17.856;2023-04-15T04:17:43;15.15;;;10.20;;
48853;SDS011;34673;52.808;17.856;2023-04-15T04:20:10;16.08;;;11.05;;
48853;SDS011;34673;52.808;17.856;2023-04-15T04:22:38;16.30;;;10.10;;
48853;SDS011;34673;52.808;17.856;2023-04-15T04:25:06;15.60;;;10.70;;
48853;SDS011;34673;52.808;17.856;2023-04-15T04:27:34;17.40;;;11.35;;
48853;SDS011;34673;52.808;17.856;2023-04-15T04:30:02;14.23;;;10.30;;
48853;SDS011;34673;52.808;17.856;2023-04-15T04:32:29;16.17;;;10.90;;
48853;SDS011;34673;52.808;17.856;2023-04-15T04:34:57;15.63;;;10.68;;
48853;SDS011;34673;52.808;17.856;2023-04-15T04:37:24;16.20;;;10.18;;
48853;SDS011;34673;52.808;17.856;2023-04-15T04:39:51;15.35;;;11.15;;
48853;SDS011;34673;52.808;17.856;2023-04-15T04:42:18;14.45;;;10.48;;
48853;SDS011;34673;52.808;17.856;2023-04-15T04:44:45;17.20;;;11.27;;
48853;SDS011;34673;52.808;17.856;2023-04-15T04:47:12;14.70;;;10.68;;
48853;SDS011;34673;52.808;17.856;2023-04-15T04:49:40;15.73;;;10.60;;
48853;SDS011;34673;52.808;17.856;2023-04-15T04:52:07;22.20;;;13.48;;
48853;SDS011;34673;52.808;17.856;2023-04-15T04:54:34;20.48;;;12.63;;
48853;SDS011;34673;52.808;17.856;2023-04-15T04:57:01;32.35;;;16.52;;
48853;SDS011;34673;52.808;17.856;2023-04-15T04:59:28;45.80;;;19.40;;
48853;SDS011;34673;52.808;17.856;2023-04-15T05:01:55;52.15;;;21.63;;
48853;SDS011;34673;52.808;17.856;2023-04-15T05:04:23;54.67;;;21.92;;
48853;SDS011;34673;52.808;17.856;2023-04-15T05:06:50;57.72;;;22.00;;
48853;SDS011;34673;52.808;17.856;2023-04-15T05:09:17;46.22;;;19.90;;
48853;SDS011;34673;52.808;17.856;2023-04-15T05:11:44;43.20;;;17.88;;
48853;SDS011;34673;52.808;17.856;2023-04-15T05:14:11;59.15;;;21.60;;
48853;SDS011;34673;52.808;17.856;2023-04-15T05:16:38;49.90;;;19.13;;
48853;SDS011;34673;52.808;17.856;2023-04-15T05:19:06;35.35;;;16.65;;
48853;SDS011;34673;52.808;17.856;2023-04-15T05:21:33;30.75;;;16.17;;
48853;SDS011;34673;52.808;17.856;2023-04-15T05:24:03;21.90;;;13.07;;
48853;SDS011;34673;52.808;17.856;2023-04-15T05:26:31;17.85;;;12.15;;
48853;SDS011;34673;52.808;17.856;2023-04-15T05:28:58;19.75;;;12.25;;
48853;SDS011;34673;52.808;17.856;2023-04-15T05:31:25;19.23;;;12.27;;
48853;SDS011;34673;52.808;17.856;2023-04-15T05:33:53;20.20;;;13.23;;
48853;SDS011;34673;52.808;17.856;2023-04-15T05:36:20;18.95;;;12.95;;
48853;SDS011;34673;52.808;17.856;2023-04-15T05:38:47;18.55;;;12.32;;
48853;SDS011;34673;52.808;17.856;2023-04-15T05:41:14;19.33;;;12.70;;
48853;SDS011;34673;52.808;17.856;2023-04-15T05:43:45;18.25;;;12.95;;
48853;SDS011;34673;52.808;17.856;2023-04-15T05:46:12;18.02;;;12.27;;
48853;SDS011;34673;52.808;17.856;2023-04-15T05:48:39;19.10;;;12.38;;
48853;SDS011;34673;52.808;17.856;2023-04-15T05:51:06;16.48;;;12.23;;
48853;SDS011;34673;52.808;17.856;2023-04-15T05:53:33;18.30;;;12.60;;
48853;SDS011;34673;52.808;17.856;2023-04-15T05:56:01;21.63;;;14.27;;
48853;SDS011;34673;52.808;17.856;2023-04-15T05:58:28;20.00;;;14.07;;
48853;SDS011;34673;52.808;17.856;2023-04-15T06:00:55;19.13;;;14.10;;
48853;SDS011;34673;52.808;17.856;2023-04-15T06:03:22;18.58;;;13.38;;
48853;SDS011;34673;52.808;17.856;2023-04-15T06:05:50;24.98;;;15.65;;
48853;SDS011;34673;52.808;17.856;2023-04-15T06:08:17;27.52;;;15.63;;
48853;SDS011;34673;52.808;17.856;2023-04-15T06:10:44;19.15;;;13.75;;
48853;SDS011;34673;52.808;17.856;2023-04-15T06:13:11;18.48;;;13.30;;
48853;SDS011;34673;52.808;17.856;2023-04-15T06:15:39;15.82;;;12.45;;
48853;SDS011;34673;52.808;17.856;2023-04-15T06:18:06;15.63;;;11.63;;
48853;SDS011;34673;52.808;17.856;2023-04-15T06:20:33;16.55;;;11.35;;
48853;SDS011;34673;52.808;17.856;2023-04-15T06:23:00;14.90;;;10.38;;
48853;SDS011;34673;52.808;17.856;2023-04-15T06:25:28;14.15;;;10.50;;
48853;SDS011;34673;52.808;17.856;2023-04-15T06:27:55;11.30;;;9.00;;
48853;SDS011;34673;52.808;17.856;2023-04-15T06:30:22;12.90;;;9.85;;
48853;SDS011;34673;52.808;17.856;2023-04-15T06:32:49;15.32;;;10.60;;
48853;SDS011;34673;52.808;17.856;2023-04-15T06:35:17;13.25;;;9.68;;
48853;SDS011;34673;52.808;17.856;2023-04-15T06:37:44;17.35;;;12.63;;
48853;SDS011;34673;52.808;17.856;2023-04-15T06:40:11;14.68;;;10.90;;
48853;SDS011;34673;52.808;17.856;2023-04-15T06:42:39;16.40;;;12.77;;
48853;SDS011;34673;52.808;17.856;2023-04-15T06:45:07;15.38;;;11.60;;
48853;SDS011;34673;52.808;17.856;2023-04-15T06:47:35;16.77;;;12.30;;
48853;SDS011;34673;52.808;17.856;2023-04-15T06:50:02;14.55;;;11.68;;
48853;SDS011;34673;52.808;17.856;2023-04-15T06:52:30;14.73;;;11.63;;
48853;SDS011;34673;52.808;17.856;2023-04-15T06:54:57;15.60;;;12.25;;
48853;SDS011;34673;52.808;17.856;2023-04-15T06:57:25;16.98;;;12.60;;
48853;SDS011;34673;52.808;17.856;2023-04-15T06:59:52;16.27;;;11.80;;
48853;SDS011;34673;52.808;17.856;2023-04-15T07:02:20;15.60;;;12.18;;
48853;SDS011;34673;52.808;17.856;2023-04-15T07:04:47;16.42;;;13.15;;
48853;SDS011;34673;52.808;17.856;2023-04-15T07:07:14;15.43;;;11.73;;
48853;SDS011;34673;52.808;17.856;2023-04-15T07:09:43;14.68;;;11.57;;
48853;SDS011;34673;52.808;17.856;2023-04-15T07:12:10;17.35;;;12.75;;
48853;SDS011;34673;52.808;17.856;2023-04-15T07:14:37;16.40;;;11.88;;
48853;SDS011;34673;52.808;17.856;2023-04-15T07:17:04;20.88;;;14.13;;
48853;SDS011;34673;52.808;17.856;2023-04-15T07:19:32;15.68;;;12.18;;
48853;SDS011;34673;52.808;17.856;2023-04-15T07:21:59;15.00;;;11.68;;
48853;SDS011;34673;52.808;17.856;2023-04-15T07:24:26;16.38;;;12.38;;
48853;SDS011;34673;52.808;17.856;2023-04-15T07:26:53;15.98;;;13.00;;
48853;SDS011;34673;52.808;17.856;2023-04-15T07:29:26;14.73;;;11.57;;
48853;SDS011;34673;52.808;17.856;2023-04-15T07:31:53;15.98;;;12.60;;
48853;SDS011;34673;52.808;17.856;2023-04-15T07:34:20;17.23;;;12.65;;
48853;SDS011;34673;52.808;17.856;2023-04-15T07:36:47;16.55;;;11.95;;
48853;SDS011;34673;52.808;17.856;2023-04-15T07:39:17;17.65;;;12.05;;
48853;SDS011;34673;52.808;17.856;2023-04-15T07:41:44;17.02;;;13.13;;
48853;SDS011;34673;52.808;17.856;2023-04-15T07:44:12;16.27;;;12.80;;
48853;SDS011;34673;52.808;17.856;2023-04-15T07:46:39;17.15;;;12.95;;
48853;SDS011;34673;52.808;17.856;2023-04-15T07:49:06;17.40;;;12.98;;
48853;SDS011;34673;52.808;17.856;2023-04-15T07:51:34;17.42;;;12.18;;
48853;SDS011;34673;52.808;17.856;2023-04-15T07:54:01;16.58;;;12.70;;
48853;SDS011;34673;52.808;17.856;2023-04-15T07:56:28;16.75;;;11.48;;
48853;SDS011;34673;52.808;17.856;2023-04-15T07:58:56;18.25;;;12.27;;
48853;SDS011;34673;52.808;17.856;2023-04-15T08:01:23;17.40;;;13.10;;
48853;SDS011;34673;52.808;17.856;2023-04-15T08:03:50;14.75;;;10.95;;
48853;SDS011;34673;52.808;17.856;2023-04-15T08:06:18;17.95;;;12.25;;
48853;SDS011;34673;52.808;17.856;2023-04-15T08:08:45;16.13;;;11.82;;
48853;SDS011;34673;52.808;17.856;2023-04-15T08:11:13;16.10;;;12.60;;
48853;SDS011;34673;52.808;17.856;2023-04-15T08:13:40;17.02;;;11.85;;
48853;SDS011;34673;52.808;17.856;2023-04-15T08:16:25;14.77;;;11.13;;
48853;SDS011;34673;52.808;17.856;2023-04-15T08:18:55;15.57;;;11.77;;
48853;SDS011;34673;52.808;17.856;2023-04-15T08:21:23;18.83;;;13.18;;
48853;SDS011;34673;52.808;17.856;2023-04-15T08:23:51;17.02;;;12.95;;
48853;SDS011;34673;52.808;17.856;2023-04-15T08:26:19;18.98;;;12.63;;
48853;SDS011;34673;52.808;17.856;2023-04-15T08:28:47;16.00;;;11.80;;
48853;SDS011;34673;52.808;17.856;2023-04-15T08:31:15;16.05;;;12.50;;
48853;SDS011;34673;52.808;17.856;2023-04-15T08:33:43;17.67;;;13.10;;
48853;SDS011;34673;52.808;17.856;2023-04-15T08:36:11;18.30;;;13.07;;
48853;SDS011;34673;52.808;17.856;2023-04-15T08:38:39;16.35;;;12.23;;
48853;SDS011;34673;52.808;17.856;2023-04-15T08:41:20;19.17;;;13.77;;
48853;SDS011;34673;52.808;17.856;2023-04-15T08:43:52;18.50;;;13.48;;
48853;SDS011;34673;52.808;17.856;2023-04-15T08:46:24;17.30;;;12.32;;
48853;SDS011;34673;52.808;17.856;2023-04-15T08:48:53;17.65;;;12.70;;
48853;SDS011;34673;52.808;17.856;2023-04-15T08:51:23;19.30;;;12.38;;
48853;SDS011;34673;52.808;17.856;2023-04-15T08:53:51;17.58;;;12.98;;
48853;SDS011;34673;52.808;17.856;2023-04-15T08:56:18;16.40;;;12.10;;
48853;SDS011;34673;52.808;17.856;2023-04-15T08:58:54;19.05;;;12.43;;
48853;SDS011;34673;52.808;17.856;2023-04-15T09:01:22;16.88;;;12.88;;
48853;SDS011;34673;52.808;17.856;2023-04-15T09:03:50;20.33;;;15.18;;
48853;SDS011;34673;52.808;17.856;2023-04-15T09:06:20;17.08;;;12.70;;
48853;SDS011;34673;52.808;17.856;2023-04-15T09:08:49;18.08;;;12.80;;
48853;SDS011;34673;52.808;17.856;2023-04-15T09:11:17;19.98;;;14.23;;
48853;SDS011;34673;52.808;17.856;2023-04-15T09:13:45;18.60;;;13.40;;
48853;SDS011;34673;52.808;17.856;2023-04-15T09:16:13;17.67;;;13.05;;
48853;SDS011;34673;52.808;17.856;2023-04-15T09:18:40;20.08;;;14.18;;
48853;SDS011;34673;52.808;17.856;2023-04-15T09:23:37;20.83;;;13.83;;
48853;SDS011;34673;52.808;17.856;2023-04-15T09:26:28;21.83;;;14.73;;
48853;SDS011;34673;52.808;17.856;2023-04-15T09:29:03;19.58;;;13.75;;
48853;SDS011;34673;52.808;17.856;2023-04-15T09:31:32;21.75;;;15.05;;
48853;SDS011;34673;52.808;17.856;2023-04-15T09:33:59;17.17;;;12.77;;
48853;SDS011;34673;52.808;17.856;2023-04-15T09:36:27;18.33;;;12.85;;
48853;SDS011;34673;52.808;17.856;2023-04-15T09:38:56;19.00;;;14.75;;
48853;SDS011;34673;52.808;17.856;2023-04-15T09:41:25;21.85;;;15.23;;
48853;SDS011;34673;52.808;17.856;2023-04-15T09:43:52;18.33;;;14.00;;
48853;SDS011;34673;52.808;17.856;2023-04-15T09:46:20;15.60;;;12.40;;
48853;SDS011;34673;52.808;17.856;2023-04-15T09:49:07;17.73;;;12.27;;
48853;SDS011;34673;52.808;17.856;2023-04-15T09:51:35;18.27;;;11.90;;
48853;SDS011;34673;52.808;17.856;2023-04-15T09:54:02;18.02;;;13.02;;
48853;SDS011;34673;52.808;17.856;2023-04-15T09:56:33;15.60;;;12.27;;
48853;SDS011;34673;52.808;17.856;2023-04-15T09:59:07;18.15;;;12.40;;
48853;SDS011;34673;52.808;17.856;2023-04-15T10:01:34;19.17;;;11.70;;
48853;SDS011;34673;52.808;17.856;2023-04-15T10:04:03;15.48;;;11.57;;
48853;SDS011;34673;52.808;17.856;2023-04-15T10:06:32;15.63;;;10.88;;
48853;SDS011;34673;52.808;17.856;2023-04-15T10:09:00;16.77;;;12.40;;
48853;SDS011;34673;52.808;17.856;2023-04-15T10:11:27;14.55;;;10.13;;
48853;SDS011;34673;52.808;17.856;2023-04-15T10:13:57;17.38;;;12.05;;
48853;SDS011;34673;52.808;17.856;2023-04-15T10:16:25;15.95;;;12.25;;
48853;SDS011;34673;52.808;17.856;2023-04-15T10:18:56;16.23;;;11.85;;
48853;SDS011;34673;52.808;17.856;2023-04-15T10:21:27;17.15;;;11.95;;
48853;SDS011;34673;52.808;17.856;2023-04-15T10:23:54;17.42;;;11.85;;
48853;SDS011;34673;52.808;17.856;2023-04-15T10:26:22;14.90;;;11.02;;
48853;SDS011;34673;52.808;17.856;2023-04-15T10:28:50;15.85;;;11.48;;
48853;SDS011;34673;52.808;17.856;2023-04-15T10:31:19;15.18;;;10.95;;
48853;SDS011;34673;52.808;17.856;2023-04-15T10:33:47;14.10;;;10.07;;
48853;SDS011;34673;52.808;17.856;2023-04-15T10:36:16;12.50;;;9.77;;
48853;SDS011;34673;52.808;17.856;2023-04-15T10:38:45;13.55;;;9.43;;
48853;SDS011;34673;52.808;17.856;2023-04-15T10:43:54;15.07;;;9.82;;
48853;SDS011;34673;52.808;17.856;2023-04-15T10:51:40;15.25;;;9.73;;
48853;SDS011;34673;52.808;17.856;2023-04-15T10:54:30;14.23;;;9.27;;
48853;SDS011;34673;52.808;17.856;2023-04-15T10:59:34;13.48;;;9.30;;
48853;SDS011;34673;52.808;17.856;2023-04-15T11:04:51;14.57;;;9.82;;
48853;SDS011;34673;52.808;17.856;2023-04-15T11:12:39;13.18;;;9.23;;
48853;SDS011;34673;52.808;17.856;2023-04-15T11:18:09;11.50;;;8.43;;
48853;SDS011;34673;52.808;17.856;2023-04-15T11:20:43;15.35;;;10.32;;
48853;SDS011;34673;52.808;17.856;2023-04-15T11:23:13;12.68;;;9.80;;
48853;SDS011;34673;52.808;17.856;2023-04-15T11:25:41;16.13;;;9.52;;
48853;SDS011;34673;52.808;17.856;2023-04-15T11:28:10;13.75;;;9.73;;
48853;SDS011;34673;52.808;17.856;2023-04-15T11:30:40;14.18;;;9.55;;
48853;SDS011;34673;52.808;17.856;2023-04-15T11:33:09;12.98;;;9.57;;
48853;SDS011;34673;52.808;17.856;2023-04-15T11:35:40;15.45;;;10.23;;
48853;SDS011;34673;52.808;17.856;2023-04-15T11:38:12;15.45;;;10.45;;
48853;SDS011;34673;52.808;17.856;2023-04-15T11:40:40;17.70;;;12.25;;
48853;SDS011;34673;52.808;17.856;2023-04-15T11:43:21;25.10;;;14.57;;
48853;SDS011;34673;52.808;17.856;2023-04-15T11:45:53;23.52;;;12.55;;
48853;SDS011;34673;52.808;17.856;2023-04-15T11:48:28;29.65;;;14.82;;
48853;SDS011;34673;52.808;17.856;2023-04-15T11:51:06;43.00;;;19.52;;
48853;SDS011;34673;52.808;17.856;2023-04-15T11:56:18;36.33;;;15.88;;
48853;SDS011;34673;52.808;17.856;2023-04-15T11:58:47;56.97;;;22.17;;
48853;SDS011;34673;52.808;17.856;2023-04-15T12:01:17;45.22;;;18.77;;
48853;SDS011;34673;52.808;17.856;2023-04-15T12:03:45;25.80;;;13.32;;
48853;SDS011;34673;52.808;17.856;2023-04-15T12:09:11;25.35;;;12.95;;
48853;SDS011;34673;52.808;17.856;2023-04-15T12:16:55;18.58;;;9.98;;
48853;SDS011;34673;52.808;17.856;2023-04-15T12:19:36;20.17;;;10.60;;
48853;SDS011;34673;52.808;17.856;2023-04-15T12:22:07;18.05;;;10.15;;
48853;SDS011;34673;52.808;17.856;2023-04-15T12:24:36;15.90;;;10.48;;
48853;SDS011;34673;52.808;17.856;2023-04-15T12:27:08;14.23;;;9.30;;
48853;SDS011;34673;52.808;17.856;2023-04-15T12:29:37;15.23;;;9.52;;
48853;SDS011;34673;52.808;17.856;2023-04-15T12:34:35;16.02;;;9.95;;
48853;SDS011;34673;52.808;17.856;2023-04-15T12:37:05;13.77;;;9.33;;
48853;SDS011;34673;52.808;17.856;2023-04-15T12:39:39;14.13;;;9.73;;
48853;SDS011;34673;52.808;17.856;2023-04-15T12:42:08;14.88;;;9.40;;
48853;SDS011;34673;52.808;17.856;2023-04-15T12:44:36;15.40;;;9.35;;
48853;SDS011;34673;52.808;17.856;2023-04-15T12:47:06;11.83;;;8.60;;
48853;SDS011;34673;52.808;17.856;2023-04-15T12:49:34;12.38;;;8.30;;
48853;SDS011;34673;52.808;17.856;2023-04-15T12:52:02;14.25;;;9.65;;
48853;SDS011;34673;52.808;17.856;2023-04-15T12:54:30;11.48;;;7.55;;
48853;SDS011;34673;52.808;17.856;2023-04-15T12:56:58;17.00;;;9.65;;
48853;SDS011;34673;52.808;17.856;2023-04-15T12:59:25;13.02;;;8.38;;
48853;SDS011;34673;52.808;17.856;2023-04-15T13:01:52;14.45;;;8.80;;
48853;SDS011;34673;52.808;17.856;2023-04-15T13:04:20;24.08;;;12.60;;
48853;SDS011;34673;52.808;17.856;2023-04-15T13:06:48;36.28;;;14.30;;
48853;SDS011;34673;52.808;17.856;2023-04-15T13:09:15;23.80;;;11.75;;
48853;SDS011;34673;52.808;17.856;2023-04-15T13:11:42;26.73;;;13.30;;
48853;SDS011;34673;52.808;17.856;2023-04-15T13:14:09;36.53;;;15.60;;
48853;SDS011;34673;52.808;17.856;2023-04-15T13:16:40;38.28;;;17.77;;
48853;SDS011;34673;52.808;17.856;2023-04-15T13:19:07;28.42;;;13.48;;
48853;SDS011;34673;52.808;17.856;2023-04-15T13:21:34;29.08;;;14.60;;
48853;SDS011;34673;52.808;17.856;2023-04-15T13:24:02;26.50;;;14.15;;
48853;SDS011;34673;52.808;17.856;2023-04-15T13:26:30;15.20;;;9.73;;
48853;SDS011;34673;52.808;17.856;2023-04-15T13:28:58;16.70;;;10.63;;
48853;SDS011;34673;52.808;17.856;2023-04-15T13:31:25;17.67;;;9.32;;
48853;SDS011;34673;52.808;17.856;2023-04-15T13:33:53;13.38;;;8.90;;
48853;SDS011;34673;52.808;17.856;2023-04-15T13:36:20;12.93;;;8.73;;
48853;SDS011;34673;52.808;17.856;2023-04-15T13:38:47;12.27;;;8.52;;
48853;SDS011;34673;52.808;17.856;2023-04-15T13:41:17;11.27;;;8.03;;
48853;SDS011;34673;52.808;17.856;2023-04-15T13:43:44;13.43;;;7.65;;
48853;SDS011;34673;52.808;17.856;2023-04-15T13:46:11;12.30;;;8.32;;
48853;SDS011;34673;52.808;17.856;2023-04-15T13:48:39;10.93;;;8.05;;
48853;SDS011;34673;52.808;17.856;2023-04-15T13:51:06;13.18;;;8.13;;
48853;SDS011;34673;52.808;17.856;2023-04-15T13:53:33;10.50;;;7.95;;
48853;SDS011;34673;52.808;17.856;2023-04-15T13:56:05;14.68;;;7.63;;
48853;SDS011;34673;52.808;17.856;2023-04-15T13:58:33;14.65;;;8.15;;
48853;SDS011;34673;52.808;17.856;2023-04-15T14:01:02;11.43;;;7.72;;
48853;SDS011;34673;52.808;17.856;2023-04-15T14:03:31;12.15;;;7.45;;
48853;SDS011;34673;52.808;17.856;2023-04-15T14:06:00;12.43;;;8.05;;
48853;SDS011;34673;52.808;17.856;2023-04-15T14:08:28;17.38;;;8.75;;
48853;SDS011;34673;52.808;17.856;2023-04-15T14:10:56;13.68;;;9.07;;
48853;SDS011;34673;52.808;17.856;2023-04-15T14:13:23;16.27;;;9.60;;
48853;SDS011;34673;52.808;17.856;2023-04-15T14:15:50;12.57;;;9.27;;
48853;SDS011;34673;52.808;17.856;2023-04-15T14:18:18;13.30;;;8.63;;
48853;SDS011;34673;52.808;17.856;2023-04-15T14:20:45;13.10;;;8.95;;
48853;SDS011;34673;52.808;17.856;2023-04-15T14:23:12;11.73;;;8.48;;
48853;SDS011;34673;52.808;17.856;2023-04-15T14:25:39;12.35;;;8.27;;
48853;SDS011;34673;52.808;17.856;2023-04-15T14:28:06;12.98;;;9.07;;
48853;SDS011;34673;52.808;17.856;2023-04-15T14:30:33;15.05;;;9.20;;
48853;SDS011;34673;52.808;17.856;2023-04-15T14:33:01;15.50;;;10.27;;
48853;SDS011;34673;52.808;17.856;2023-04-15T14:35:29;15.93;;;10.15;;
48853;SDS011;34673;52.808;17.856;2023-04-15T14:37:56;15.93;;;9.60;;
48853;SDS011;34673;52.808;17.856;2023-04-15T14:40:24;11.65;;;7.78;;
48853;SDS011;34673;52.808;17.856;2023-04-15T14:42:51;12.15;;;8.30;;
48853;SDS011;34673;52.808;17.856;2023-04-15T14:45:18;13.13;;;8.43;;
48853;SDS011;34673;52.808;17.856;2023-04-15T14:47:45;13.68;;;9.63;;
48853;SDS011;34673;52.808;17.856;2023-04-15T14:50:13;11.23;;;8.73;;
48853;SDS011;34673;52.808;17.856;2023-04-15T14:52:40;10.27;;;7.38;;
48853;SDS011;34673;52.808;17.856;2023-04-15T14:55:07;9.65;;;6.50;;
48853;SDS011;34673;52.808;17.856;2023-04-15T14:57:39;11.18;;;7.32;;
48853;SDS011;34673;52.808;17.856;2023-04-15T15:00:08;10.75;;;7.70;;